createdAt,value
2022-08-29T00:12:59.461Z,20.89
2022-08-29T00:27:50.762Z,20.69
2022-08-29T00:42:41.757Z,20.38
2022-08-29T00:57:32.579Z,20.21
2022-08-29T01:12:24.119Z,20.02
2022-08-29T01:27:14.419Z,19.86
2022-08-29T01:42:05.289Z,19.61
2022-08-29T01:56:57.310Z,19.44
2022-08-29T02:11:48.617Z,19.31
2022-08-29T02:26:40.960Z,19.24
2022-08-29T02:41:32.479Z,19.07
2022-08-29T02:56:22.663Z,18.86
2022-08-29T03:11:12.925Z,18.72
2022-08-29T03:26:04.289Z,18.60
2022-08-29T03:40:57.553Z,18.58
2022-08-29T03:55:46.601Z,18.43
2022-08-29T04:10:38.447Z,18.40
2022-08-29T04:25:32.915Z,18.00
2022-08-29T04:40:20.303Z,17.65
2022-08-29T04:55:11.787Z,17.72
2022-08-29T05:10:02.661Z,17.63
2022-08-29T05:24:53.595Z,17.56
2022-08-29T05:39:45.036Z,17.50
2022-08-29T05:54:36.344Z,17.61
2022-08-29T06:09:27.637Z,17.63
2022-08-29T06:24:18.773Z,17.82
2022-08-29T06:39:10.895Z,18.22
2022-08-29T06:54:03.826Z,18.61
2022-08-29T07:08:56.446Z,19.07
2022-08-29T07:23:46.878Z,19.49
2022-08-29T07:38:39.106Z,19.91
2022-08-29T07:53:32.353Z,20.36
2022-08-29T08:08:24.327Z,20.63
2022-08-29T08:23:17.071Z,21.07
2022-08-29T08:38:10.031Z,21.58
2022-08-29T08:53:07.859Z,21.85
2022-08-29T09:08:07.929Z,22.25
2022-08-29T09:23:07.077Z,22.54
2022-08-29T09:38:02.210Z,22.72
2022-08-29T09:53:00.737Z,23.10
2022-08-29T10:07:57.080Z,23.46
2022-08-29T10:23:05.473Z,23.87
2022-08-29T10:38:33.698Z,24.32
2022-08-29T10:53:32.603Z,24.73
2022-08-29T11:08:31.967Z,25.17
2022-08-29T11:23:40.352Z,25.56
2022-08-29T11:38:43.995Z,26.17
2022-08-29T11:53:41.198Z,26.54
2022-08-29T12:08:37.833Z,27.07
2022-08-29T12:23:35.733Z,27.47
2022-08-29T12:38:31.606Z,27.71
2022-08-29T12:53:28.987Z,28.12
2022-08-29T13:08:31.047Z,28.24
2022-08-29T13:23:28.456Z,28.54
2022-08-29T13:38:21.901Z,28.83
2022-08-29T13:53:15.350Z,29.12
2022-08-29T14:08:07.956Z,29.31
2022-08-29T14:23:00.640Z,29.32
2022-08-29T14:37:53.502Z,29.53
2022-08-29T14:52:45.907Z,29.62
2022-08-29T15:07:38.341Z,29.68
2022-08-29T15:22:34.078Z,30.16
2022-08-29T15:37:29.398Z,30.06
2022-08-29T15:52:18.245Z,29.19
2022-08-29T16:07:08.806Z,28.76
2022-08-29T16:21:59.547Z,28.42
2022-08-29T16:36:51.140Z,28.26
2022-08-29T16:51:43.553Z,28.09
2022-08-29T17:06:36.581Z,27.92
2022-08-29T17:21:27.699Z,27.76
2022-08-29T17:36:19.005Z,27.62
2022-08-29T17:51:10.778Z,27.35
2022-08-29T18:06:03.596Z,27.14
2022-08-29T18:20:56.563Z,26.91
2022-08-29T18:35:47.740Z,26.67
2022-08-29T18:50:39.591Z,26.42
2022-08-29T19:05:31.071Z,26.15
2022-08-29T19:20:41.201Z,25.87
2022-08-29T19:35:38.257Z,25.60
2022-08-29T19:50:30.874Z,25.37
2022-08-29T20:05:24.604Z,25.11
2022-08-29T20:20:16.221Z,24.83
2022-08-29T20:35:07.342Z,24.60
2022-08-29T20:49:57.959Z,24.41
2022-08-29T21:05:07.842Z,24.17
2022-08-29T21:20:05.575Z,24.01
2022-08-29T21:34:56.889Z,23.78
2022-08-29T21:49:48.113Z,23.66
2022-08-29T22:04:39.099Z,23.51
2022-08-29T22:19:30.207Z,23.49
2022-08-29T22:34:21.848Z,23.38
2022-08-29T22:49:14.075Z,23.18
2022-08-29T23:04:06.077Z,22.96
2022-08-29T23:18:56.875Z,22.77
